Fairfield Glade, Tennessee
Current Conditions -  °F | °C
As of 3:53 AM on Friday 28 Nov 2014 (Local Time) from KCSV Reporting Station
Broken Clouds Broken Clouds  
Wind Chill: 23°   Ceiling: 2000
Heat Index: 23°   Visibility: 10mi
Dew Point: 16°   Wind: 0mph
Humidity: 74%   Direction: NA
Pressure: 30.35"   Gusts: NA
Location:  36.0033°N, 84.8901°W
Report Text: KCSV 280953Z AUTO 00000KT 10SM BKN020 M05/M09 A3035 RMK AO2 SLP296 T10501089
Loading
Personal Weather Stations






























Interactive Weather Map New forecast layout! Learn more

10-Day Weather Forecast

Advertisements
Track Severe Weather on mobile